MMMXMMMM

Guest
Details From MMMX - Licenciado Benito Juarez Intl
To MMMM - GENERAL FRANCISCO J MUJICA INTL
Flight Number -
Tags generated
Created
Modified
Stats Distance 113 nm / 210 km
Max Altitude 14,000 ft / 4,267 m
Waypoints 3
Social Downloads 2
Likes 0
Share VATSIM

Download

Looking for another format? Having issues loading an existing format? Contact us
Advertisement - Login to hide

Notes

Basic altitude profile: - Ascent Rate: 2500ft/min - Ascent Speed: 250kts - Cruise Altitude: 35000ft - Cruise Speed: 420kts - Descent Rate: 1500ft/min - Descent Speed: 250kts Options: - Use NATs: no - Use PACOTS: no - Use low airways: yes - Use high airways: no

Route

MMMX PTJ MMMM

ID Type Via Altitude Latitude Longitude Leg Dist Tot Dist Heading (true) Name
O MMMX APT - 0 ft / 0 m 19.43631˚ -99.07210˚ - 0 nm - Licenciado Benito Juarez Intl
PTJ VOR - 14,000 ft / 4,267 m 19.64569˚ -99.79803˚ 42 nm 42 nm 287° / 287° PASTEJE VOR-DME
O MMMM APT - 0 ft / 0 m 19.85049˚ -101.02526˚ 70 nm 113 nm 280° / 280° GENERAL FRANCISCO J MUJICA INTL

Altitude Profile

Advertisement - Login to hide

MMMX

Details ICAO MMMX (MEX)
Name Licenciado Benito Juarez Intl
Region Mexico
Timezone America/Mexico_City (UTC-5.0)
Stats Elevation 7,316 ft / 2,230 m (AMSL)
Location 19.436308° -99.072104°
Runways 2
Magnetic Variation 4.599° E

METAR

MMMX 210452Z 25007KT 7SM BKN020CB BKN080 OVC200 16/12 A3030 NOSIG RMK 60065 8/963 HZY

Decode

TAF

TAF AMD MMMX 210023Z 2100/2206 14015G25KT 2SM +TSRA OVC015CB TX28/2121Z TN14/2112Z FM210100 04010KT 4SM TSRA BKN015CB OVC030 FM210200 04010KT 5SM RA BKN020CB OVC080 FM210600 04010KT 5SM HZ SCT020 BKN080 FM211100 00000KT 5SM HZ SCT020 FM212000 04010KT P6SM BKN025 TEMPO 2121/2201 4SM TSRA BKN020CB

Decode

Departure Runways

ID Width Length Bearing (true) Bearing (mag) Surface Threshold Offset Overrun Length
05L 148 ft / 45 m 12,951 ft / 3,948 m 59.25° 54.65° Asphalt 1,033 ft / 315 m 0 ft / 0 m
05R 148 ft / 45 m 12,800 ft / 3,902 m 59.26° 54.66° Asphalt 1,493 ft / 455 m 0 ft / 0 m
23L 148 ft / 45 m 12,800 ft / 3,902 m 239.28° 234.68° Asphalt 0 ft / 0 m 200 ft / 61 m
23R 148 ft / 45 m 12,951 ft / 3,948 m 239.27° 234.67° Asphalt 1,640 ft / 500 m 0 ft / 0 m

MMMM

Details ICAO MMMM (MLM)
Name GENERAL FRANCISCO J MUJICA INTL
Region Mexico
Timezone America/Mexico_City (UTC-5.0)
Stats Elevation 6,033 ft / 1,839 m (AMSL)
Location 19.850494° -101.025263°
Runways 1
Magnetic Variation 5.369° E

METAR

Not found

TAF

TAF MMMM 202314Z 2100/2206 20012KT P6SM BKN030CB TEMPO 2100/2103 5SM -TSRA FM210400 00000KT P6SM SCT100 BECMG 2109/2110 6SM HZ SKC FM211800 20005KT P6SM SKC BECMG 2120/2121 21010KT SCT030 TEMPO 2122/2202 4SM TSRA BKN020CB BKN100

Decode

Destination Runways

ID Width Length Bearing (true) Bearing (mag) Surface Threshold Offset Overrun Length
05 148 ft / 45 m 11,164 ft / 3,403 m 54.53° 49.16° Asphalt 0 ft / 0 m 190 ft / 58 m
23 148 ft / 45 m 11,164 ft / 3,403 m 234.54° 229.17° Asphalt 0 ft / 0 m 190 ft / 58 m

Popular Alternatives